עמוד ראשי
METAR-TAF:

METAR-TAF

שדות תעופה :

Midland, טקסס, ארצות הברית

קו רוחב: 32-02-11N, קו אורך: 102-06-03W, גובה: 854מטר

תצפית מזג אוויר נוכחית

הדו"ח נערך לפני 21דקות, בשעה 03:35 UTC
רוח 6קשר מכיוון מזרח/דרום-מזרח
טמפרטורת 30 צלסיוס
לחות 35%
לחץ 1022 hPa
ראות: 16.1קילומטר
עננים פזורים בגובה 9000רגל

METAR: KMDD 250335Z AUTO 12006KT 10SM SCT090 30/13 A3018 RMK AO2 T02990128

זמן: 22:56 (03:56 UTC)


TAF: חסר

תצפיות ותחזיות מזג אוויר לגבי יותר מ- 4,000 שדות תעופה ברחבי העולם. דוחות METAR ו- TAF.

התחנות הזמינות מסומנות בנקודות צהובות ואדומות על גבי המפה.

העבר את העכבר לנקודה הצבעונית על מנת לראות את שם התחנה.

לאחר מכן, לחץ כדי לראות את תוכן ואת תחזיות מזג האוויר.

כדי לשנות את המפה: לחץ על הכפתורים הירוקים עם הפלוס השחור כדי להתקרב; על הכפתור הירוק עם המקף כדי להתרחק; או בחיצים הירוקים למפות סמוכות.


METAR-TAF: